AirNav   TITAN Aviation Fuels
 
 1109 users online  

KNHU Norfolk Naval Station Airport
Norfolk, Virginia, USA


FAA INFORMATION EFFECTIVE 16 JUNE 2022

Location

FAA Identifier: NHU
Lat/Long: 36-57-20.3500N 076-18-13.5250W
36-57.339167N 076-18.225417W
36.9556528,-76.3037569
(estimated)
Elevation: 10 ft. / 3 m (estimated)
Variation: 10W (1990)
From city: 7 miles N of NORFOLK, VA
Time zone: UTC -4 (UTC -5 during Standard Time)
Zip code: 23511

Airport Operations

Airport use: Private use. Permission required prior to landing
Activation date: 04/2021
Control tower: yes
ARTCC: WASHINGTON CENTER
FSS: LEESBURG FLIGHT SERVICE STATION
Attendance: 
Wind indicator: yes
Segmented circle: no

Airport Communications

WX ASOS at ORF (6 nm SE): PHONE 757-460-9348
WX AWOS-3PT at PVG (13 nm SW): 118.375 (757-465-2175)
WX ASOS at PHF (14 nm NW): PHONE 757-874-3682
WX ASOS at NTU (15 nm SE): PHONE DSN 433-3619 or 757-433-3619
WX AWOS-3 at CPK (17 nm S): 123.675 (757-204-4290)

Airport Services

Runway Information

Runway 9/27

Dimensions: 1705 x 150 ft. / 520 x 46 m
Surface: asphalt, in excellent condition
RUNWAY 9  RUNWAY 27
Latitude: 36-57.329667N36-57.348667N
Longitude: 076-18.400167W076-18.050667W
Elevation: 8.8 ft.9.1 ft.
Traffic pattern: leftleft
Runway heading: 096 magnetic, 086 true276 magnetic, 266 true
Touchdown point: yes, no lightsyes, no lights

Helipad H3

Dimensions: 120 x 120 ft. / 37 x 37 m
Surface: concrete, in excellent condition
Latitude: 36-57.258000N
Longitude: 076-18.326667W
Elevation: 9.4 ft.
Traffic pattern: leftleft

Helipad H4

Dimensions: 120 x 120 ft. / 37 x 37 m
Surface: concrete, in excellent condition
Latitude: 36-57.208667N
Longitude: 076-18.322667W
Elevation: 8.2 ft.
Traffic pattern: leftleft

Helipad H5

Dimensions: 120 x 120 ft. / 37 x 37 m
Surface: concrete, in excellent condition
Latitude: 36-57.012667N
Longitude: 076-16.665667W
Elevation: 8.7 ft.
Traffic pattern: leftleft

Helipad H6

Dimensions: 120 x 120 ft. / 37 x 37 m
Surface: concrete, in excellent condition
Latitude: 36-56.975667N
Longitude: 076-16.807667W
Elevation: 8.9 ft.
Traffic pattern: leftleft

Helipad H7

Dimensions: 120 x 120 ft. / 37 x 37 m
Surface: concrete, in excellent condition
Latitude: 36-56.938000N
Longitude: 076-16.936167W
Elevation: 8.7 ft.
Traffic pattern: leftleft

Helipad H8

Dimensions: 120 x 120 ft. / 37 x 37 m
Surface: concrete, in excellent condition
Latitude: 36-56.852833N
Longitude: 076-17.201500W
Elevation: 9.0 ft.
Traffic pattern: leftleft

Helipad H9

Dimensions: 120 x 120 ft. / 37 x 37 m
Surface: concrete, in excellent condition
Latitude: 36-56.900500N
Longitude: 076-17.642833W
Elevation: 9.4 ft.
Traffic pattern: leftleft

Helipad H1

Dimensions: 75 x 75 ft. / 23 x 23 m
Surface: asphalt, in excellent condition
Latitude: 36-57.346000N
Longitude: 076-18.101667W
Elevation: 9.1 ft.
Traffic pattern: leftleft

Helipad H2

Dimensions: 75 x 75 ft. / 23 x 23 m
Surface: asphalt, in excellent condition
Latitude: 36-57.333000N
Longitude: 076-18.321667W
Elevation: 8.8 ft.
Traffic pattern: leftleft

Airport Ownership and Management from official FAA records

Ownership: U.S. Navy
Owner: NAVAL STATION NORFOLK
1530 GILBERT ST STE 2000
NORFOLK, VA 23511
Phone 757-322-2302
Manager: SHANE DUDLEY
8610 AIR CARGO ROAD
NORFOLK, VA 23511
Phone 757-322-3420

Instrument Procedures

NOTE: All procedures below are presented as PDF files. If you need a reader for these files, you should download the free Adobe Reader.

NOT FOR NAVIGATION. Please procure official charts for flight.
FAA instrument procedures published for use from 16 June 2022 at 0901Z to 14 July 2022 at 0900z.

 
IAPs - Instrument Approach Procedures
COPTER RNAV (GPS) 141   download (134KB)
COPTER RNAV (GPS) 276   download (127KB)
 
Departure Procedures
COPTER PRIDE ONE   2 pages: [1] [2] (225KB)
NOTE: Special Take-Off Minimums/Departure Procedures apply   download (356KB)

Other nearby airports with instrument procedures:

KNGU - Norfolk Naval Station (Chambers Field) (1 nm SE)
KORF - Norfolk International Airport (6 nm SE)
KLFI - Langley Air Force Base (8 nm N)
KPVG - Hampton Roads Executive Airport (13 nm SW)
KPHF - Newport News/Williamsburg International Airport (14 nm NW)
KNTU - Oceana Naval Air Station (Apollo Soucek Field) (15 nm SE)
KCPK - Chesapeake Regional Airport (17 nm S)
KFAF - Felker Army Airfield (18 nm NW)
 
Loc | Ops | Rwys | IFR | FBO | Links
Com | Nav | Svcs | Stats | Notes
Aerial photo
No photo
 
Airport distance calculator
Flying to Norfolk Naval Station Airport? Find the distance to fly.

From to KNHU

Sunrise and sunset
Times for 26-Jun-2022
 Local
(UTC-4)
 Zulu
(UTC)
Morning civil twilight05:1809:18
Sunrise05:4809:48
Sunset20:2800:28
Evening civil twilight20:5800:58

Current date and time
Zulu (UTC)  26-Jun-2022 19:22:39
Local (UTC-4)  26-Jun-2022 15:22:39
 
METAR
KNGU 
3nm SE 
261859Z 16007KT 10SM SCT040 SCT300 29/17 A3011 RMK AO2 SLP196 T02890167 $
KORF 
6nm SE 
261851Z 15011G16KT 10SM FEW043 FEW055 29/19 A3010 RMK AO2 SLP192 T02940194
KLFI 
7nm NW 
261856Z 10009KT 9SM FEW250 28/23 A3010 RMK AO2A SLP199 T02830227 $
KPHF 
14nm NW 
261854Z AUTO 18006KT 10SM CLR 29/16 A3010 RMK AO2 SLP193 T02940161
KNTU 
16nm SE 
261856Z 15012KT 10SM FEW040 FEW300 28/21 A3011 RMK AO2 SLP197 T02830211
KCPK 
17nm S 
261855Z AUTO 19006KT 10SM 30/16 A3011 RMK AO2 T02990164
KNFE 
18nm SE 
261856Z AUTO 16010KT 10SM CLR 30/19 A3011 RMK AO2 SLP199 T03000194
KFAF 
18nm NW 
261756Z AUTO 17008KT 10SM CLR 30/18 A3010 RMK AO2 SLP196 T02990183 10300 20226 58011 $
TAF
KNGU 
3nm SE 
2615/2715 VRB06KT 9999 SCT250 QNH3006INS BECMG 2618/2620 14013G23KT 9999 SCT250 QNH2999INS BECMG 2703/2705 18010G20KT 9999 FEW050 BKN200 QNH2998INS BECMG 2712/2714 20008G18KT 9999 SCT035 BKN050 BKN180 QNH2996INS T31/2619Z T21/2709Z FN00253
KORF 
6nm SE 
261720Z 2618/2718 04008KT P6SM SCT040 FM262200 15010KT P6SM FEW040 FM270300 18011KT P6SM SCT150 FM271200 21010KT P6SM BKN100
KLFI 
7nm NW 
261700Z 2617/2723 20009KT 9999 FEW240 QNH3013INS BECMG 2705/2706 20012KT 9999 SCT050 BKN070 QNH3004INS BECMG 2711/2712 21012G18KT 9999 SCT030 BKN050 QNH3001INS BECMG 2714/2715 27009KT 8000 -SHRA BKN030 OVC050 QNH2999INS TEMPO 2720/2723 30025G35KT 4800 -TSRA BKN020CB OVC035 TX29/2617Z TN23/2707Z
KPHF 
14nm NW 
261720Z 2618/2718 21008KT P6SM SCT040 FM262100 15010KT P6SM FEW040 FM270300 18010KT P6SM SCT150 FM271200 21011KT P6SM BKN080
KNTU 
16nm SE 
2616/2715 VRB06KT 9999 SCT250 QNH3008INS BECMG 2618/2620 14013G23KT 9999 SCT250 QNH3000INS BECMG 2702/2704 19010G20KT 9999 FEW050 BKN200 QNH2999INS BECMG 2712/2714 20008G18KT 9999 SCT030 BKN050 BKN180 QNH2998INS T30/2619Z T21/2709Z COR 1607 FN00253
NOTAMs
Click for the latest NOTAMs
NOTAMs are issued by the DoD/FAA and will open in a separate window not controlled by AirNav.

 

 
 

Would you like to see your business listed on this page?

 If your business provides an interesting product or service to pilots, flight crews, aircraft, or users of the Norfolk Naval Station Airport, you should consider listing it here.  To start the listing process, click on the button below
 
Add a business
 

Other Pages about Norfolk Naval Station Airport

Update a link
 
Copyright © AirNav, LLC. All rights reserved. Privacy Policy  Contact